Carnival Vista — 3EMB9 — position and weather

sailwx.info

Track history (hours):
 
Tides and Currents Weather Stations Pressure Air Temp Water Temp Dewpoint Dewpoint Depression Visibility Wind Speed Wind Dir Waves Ship Positions

Carnival Vista

Last reported at 2018-Apr-26 19:00 UTC. Time now 2018-Apr-26 19:11 UTC.
Position N 18°01' W 063°03'.

Length 324 m; draft 8.5 m.

Type: Passenger vessel. MMSI: 356883000.

Date/timePositionNaut miles runAvg speedWind from/ knotsBaromVisibWave heightAir tempDewpointWater temp
2018-Apr-26 19:00N 18°01' W 063°03'0 0.0
2018-Apr-26 18:18N 18°01' W 063°03'0 0.0
2018-Apr-26 18:00N 18°01' W 063°03'0 0.0
2018-Apr-26 17:30N 18°01' W 063°03'0 0.0
2018-Apr-26 17:00N 18°01' W 063°03'0 0.0
2018-Apr-26 16:21N 18°01' W 063°03'0 0.0
2018-Apr-26 15:51N 18°01' W 063°03'0 0.0
2018-Apr-26 15:24N 18°01' W 063°03'0 0.0
2018-Apr-26 14:54N 18°01' W 063°03'0 0.0
2018-Apr-26 14:24N 18°01' W 063°03'0 0.0
2018-Apr-26 13:54N 18°01' W 063°03'0 0.0
2018-Apr-26 13:24N 18°01' W 063°03'0 0.0
2018-Apr-26 12:54N 18°01' W 063°03'0 0.0
2018-Apr-26 12:24N 18°01' W 063°03'0 0.0
2018-Apr-26 11:57N 18°01' W 063°03'0 0.4
2018-Apr-26 11:28N 18°01' W 063°03'3 6.5
2018-Apr-26 10:59N 18°00' W 063°06'5 9.5
2018-Apr-26 10:27N 18°00' W 063°11'4 9.5
2018-Apr-26 09:59N 18°00' W 063°16'5 9.4
2018-Apr-26 09:29N 18°00' W 063°21'4 9.0
2018-Apr-26 09:00N 18°00' W 063°26'5 9.0
2018-Apr-26 08:27N 18°01' W 063°31'3 6.9
2018-Apr-26 08:00N 18°00' W 063°34'5 8.7
2018-Apr-26 07:29N 17°56' W 063°33'4 7.3
2018-Apr-26 07:00N 17°54' W 063°30'16 9.9 090 / 231014.010.8 26.023.126.0
2018-Apr-26 05:24N 17°50' W 063°14'410.0
2018-Apr-26 04:59N 17°50' W 063°10'510.2
2018-Apr-26 04:28N 17°45' W 063°08'5 9.5
2018-Apr-26 03:58N 17°40' W 063°07'5 9.5
2018-Apr-26 03:26N 17°35' W 063°07'410.0
2018-Apr-26 03:00N 17°30' W 063°07'5 9.5
2018-Apr-26 02:29N 17°26' W 063°05'510.1
2018-Apr-26 01:58N 17°23' W 063°00'610.4
2018-Apr-26 01:22N 17°20' W 062°55'410.4
2018-Apr-26 01:00N 17°18' W 062°51'510.1
2018-Apr-26 00:30N 17°16' W 062°46'3 0.3
2018-Apr-25 13:12N 17°17' W 062°43'2 7.5
2018-Apr-25 12:59N 17°16' W 062°45'815.2
2018-Apr-25 12:29N 17°18' W 062°52'1117.5
2018-Apr-25 11:51N 17°23' W 063°03'719.6
2018-Apr-25 11:30N 17°29' W 063°05'2 2.9
2018-Apr-25 11:00N 17°30' W 063°06'10144.9 090 / 201016.0 27.024.125.0
2018-Apr-25 10:55N 17°40' W 063°08'919.2
2018-Apr-25 10:28N 17°45' W 063°16'1019.6
2018-Apr-25 09:57N 17°49' W 063°25'1119.6
2018-Apr-25 09:25N 17°53' W 063°36'819.4
2018-Apr-25 08:59N 17°57' W 063°43'28811.1
2018-Apr-24 07:00N 20°00' W 068°18'189 9.0 090 / 301015.010.8 26.023.126.0
2018-Apr-23 10:00N 21°36' W 071°12'23616.9 080 / 301016.010.8 26.023.124.0
2018-Apr-22 20:00N 24°24' W 074°12'19114.7 050 / 251017.010.8 27.024.126.0
2018-Apr-22 07:00N 25°42' W 077°24'11517.0 050 / 281018.010.8 25.023.525.0
2018-Apr-22 00:15N 26°05' W 079°29'519.4
2018-Apr-22 00:00N 26°02' W 079°34'817.2
2018-Apr-21 23:31N 25°57' W 079°41'714.1
2018-Apr-21 23:00N 25°54' W 079°48'713.9
2018-Apr-21 22:30N 25°50' W 079°55'713.7
2018-Apr-21 22:00N 25°48' W 080°02'611.5
2018-Apr-21 21:30N 25°46' W 080°07'3 7.0
2018-Apr-21 21:00N 25°47' W 080°11'1 1.5
2018-Apr-21 20:28N 25°47' W 080°10'0 0.0
2018-Apr-21 19:52N 25°47' W 080°10'0 0.0
2018-Apr-21 19:28N 25°47' W 080°10'0 0.0
2018-Apr-21 18:55N 25°47' W 080°10'0 0.0
2018-Apr-21 18:28N 25°47' W 080°10'0 0.0
2018-Apr-21 17:52N 25°47' W 080°10'0 0.0
2018-Apr-21 17:28N 25°47' W 080°10'0 0.0
2018-Apr-21 16:55N 25°47' W 080°10'0 0.0
2018-Apr-21 16:25N 25°47' W 080°10'0 0.0
2018-Apr-21 15:55N 25°47' W 080°10'0 0.0
2018-Apr-21 15:28N 25°47' W 080°10'0 0.0
2018-Apr-21 14:58N 25°47' W 080°10'0 0.0
2018-Apr-21 14:25N 25°47' W 080°10'0 0.0
2018-Apr-21 13:58N 25°47' W 080°10'0 0.0
2018-Apr-21 13:28N 25°47' W 080°10'0 0.0
2018-Apr-21 12:58N 25°47' W 080°10'0 0.0
2018-Apr-21 12:28N 25°47' W 080°10'0 0.0
2018-Apr-21 11:58N 25°47' W 080°10'0 0.0
2018-Apr-21 11:28N 25°47' W 080°10'0 0.0
2018-Apr-21 10:58N 25°47' W 080°10'0 0.0
2018-Apr-21 10:28N 25°47' W 080°10'0 0.0
2018-Apr-21 09:58N 25°47' W 080°10'0 0.0
2018-Apr-21 09:28N 25°47' W 080°10'0 0.0
2018-Apr-21 09:00N 25°47' W 080°10'1 1.0
2018-Apr-21 08:30N 25°46' W 080°10'4 9.0
2018-Apr-21 08:00N 25°46' W 080°05'4 8.8
2018-Apr-21 07:30N 25°45' W 080°00'816.0
2018-Apr-21 07:00N 25°38' W 079°55'10624.0
2018-Apr-21 07:00N 25°30' W 079°48'2 4.0 050 / 61018.010.8 27.022.625.0
2018-Apr-21 06:30N 25°31' W 079°49'816.4
2018-Apr-21 06:00N 25°25' W 079°44'815.9
2018-Apr-21 05:30N 25°18' W 079°39'3915.2
2018-Apr-21 02:55N 24°41' W 079°50'615.1
2018-Apr-21 02:30N 24°36' W 079°55'815.7
2018-Apr-21 01:58N 24°32' W 080°02'2017.9
2018-Apr-21 00:52N 24°21' W 080°21'2118.7
2018-Apr-20 23:45N 24°11' W 080°40'518.7
2018-Apr-20 23:30N 24°08' W 080°45'7616.8
2018-Apr-20 19:00N 23°36' W 082°00'19316.1 010 / 151018.010.8 24.019.426.0
2018-Apr-20 07:00N 22°18' W 085°12'14318.9 050 / 151017.010.8 27.021.026.0
2018-Apr-19 23:23N 20°34' W 086°59'513.9
2018-Apr-19 23:00N 20°29' W 086°60'1 1.9
2018-Apr-19 22:22N 20°29' W 086°59'0 0.0
2018-Apr-19 21:58N 20°29' W 086°59'0 0.0
2018-Apr-19 21:28N 20°29' W 086°59'0 0.0
2018-Apr-19 20:58N 20°29' W 086°59'0 0.0
2018-Apr-19 20:28N 20°29' W 086°59'0 0.0
2018-Apr-19 19:58N 20°29' W 086°59'0 0.0
2018-Apr-19 19:28N 20°29' W 086°59'0 0.0
2018-Apr-19 18:52N 20°29' W 086°59'0 0.0
2018-Apr-19 18:28N 20°29' W 086°59'0 0.0
2018-Apr-19 17:49N 20°29' W 086°59'0 0.0
2018-Apr-19 17:28N 20°29' W 086°59'0 0.0
2018-Apr-19 16:58N 20°29' W 086°59'0 0.0
2018-Apr-19 16:22N 20°29' W 086°59'0 0.0
2018-Apr-19 15:58N 20°29' W 086°59'0 0.0
2018-Apr-19 15:28N 20°29' W 086°59'0 0.0
2018-Apr-19 14:58N 20°29' W 086°59'0 0.0
2018-Apr-19 14:25N 20°29' W 086°59'0 0.1
2018-Apr-19 14:00N 20°29' W 086°59'2 4.8
2018-Apr-19 13:30N 20°31' W 086°59'510.3
2018-Apr-19 13:00N 20°35' W 086°56'713.2
2018-Apr-19 12:29N 20°40' W 086°51'2517.0
2018-Apr-19 11:00N 20°42' W 086°24'7719.2 100 / 171016.010.8 26.023.125.0
2018-Apr-19 07:00N 20°18' W 085°06'28211.8 070 / 121016.010.8 28.023.726.0
2018-Apr-18 07:00N 19°00' W 080°18'   050 / 231014.010.8 27.022.626.0
Track history (hours):
 
Tides and Currents Weather Stations Pressure Air Temp Water Temp Dewpoint Dewpoint Depression Visibility Wind Speed Wind Dir Waves Ship Positions

Carnival Vista

Last reported at 2018-Apr-26 19:00 UTC. Time now 2018-Apr-26 19:11 UTC.
Position N 18°01' W 063°03'.

Length 324 m; draft 8.5 m.

Type: Passenger vessel. MMSI: 356883000.

Date/timePositionNaut miles runAvg speedWind from/ knotsBaromVisibWave heightAir tempDewpointWater temp
2018-Apr-26 19:00N 18°01' W 063°03'0 0.0
2018-Apr-26 18:18N 18°01' W 063°03'0 0.0
2018-Apr-26 18:00N 18°01' W 063°03'0 0.0
2018-Apr-26 17:30N 18°01' W 063°03'0 0.0
2018-Apr-26 17:00N 18°01' W 063°03'0 0.0
2018-Apr-26 16:21N 18°01' W 063°03'0 0.0
2018-Apr-26 15:51N 18°01' W 063°03'0 0.0
2018-Apr-26 15:24N 18°01' W 063°03'0 0.0
2018-Apr-26 14:54N 18°01' W 063°03'0 0.0
2018-Apr-26 14:24N 18°01' W 063°03'0 0.0
2018-Apr-26 13:54N 18°01' W 063°03'0 0.0
2018-Apr-26 13:24N 18°01' W 063°03'0 0.0
2018-Apr-26 12:54N 18°01' W 063°03'0 0.0
2018-Apr-26 12:24N 18°01' W 063°03'0 0.0
2018-Apr-26 11:57N 18°01' W 063°03'0 0.4
2018-Apr-26 11:28N 18°01' W 063°03'3 6.5
2018-Apr-26 10:59N 18°00' W 063°06'5 9.5
2018-Apr-26 10:27N 18°00' W 063°11'4 9.5
2018-Apr-26 09:59N 18°00' W 063°16'5 9.4
2018-Apr-26 09:29N 18°00' W 063°21'4 9.0
2018-Apr-26 09:00N 18°00' W 063°26'5 9.0
2018-Apr-26 08:27N 18°01' W 063°31'3 6.9
2018-Apr-26 08:00N 18°00' W 063°34'5 8.7
2018-Apr-26 07:29N 17°56' W 063°33'4 7.3
2018-Apr-26 07:00N 17°54' W 063°30'16 9.9 090 / 231014.010.8 26.023.126.0
2018-Apr-26 05:24N 17°50' W 063°14'410.0
2018-Apr-26 04:59N 17°50' W 063°10'510.2
2018-Apr-26 04:28N 17°45' W 063°08'5 9.5
2018-Apr-26 03:58N 17°40' W 063°07'5 9.5
2018-Apr-26 03:26N 17°35' W 063°07'410.0
2018-Apr-26 03:00N 17°30' W 063°07'5 9.5
2018-Apr-26 02:29N 17°26' W 063°05'510.1
2018-Apr-26 01:58N 17°23' W 063°00'610.4
2018-Apr-26 01:22N 17°20' W 062°55'410.4
2018-Apr-26 01:00N 17°18' W 062°51'510.1
2018-Apr-26 00:30N 17°16' W 062°46'3 0.3
2018-Apr-25 13:12N 17°17' W 062°43'2 7.5
2018-Apr-25 12:59N 17°16' W 062°45'815.2
2018-Apr-25 12:29N 17°18' W 062°52'1117.5
2018-Apr-25 11:51N 17°23' W 063°03'719.6
2018-Apr-25 11:30N 17°29' W 063°05'2 2.9
2018-Apr-25 11:00N 17°30' W 063°06'10144.9 090 / 201016.0 27.024.125.0
2018-Apr-25 10:55N 17°40' W 063°08'919.2
2018-Apr-25 10:28N 17°45' W 063°16'1019.6
2018-Apr-25 09:57N 17°49' W 063°25'1119.6
2018-Apr-25 09:25N 17°53' W 063°36'819.4
2018-Apr-25 08:59N 17°57' W 063°43'28811.1
2018-Apr-24 07:00N 20°00' W 068°18'189 9.0 090 / 301015.010.8 26.023.126.0
2018-Apr-23 10:00N 21°36' W 071°12'23616.9 080 / 301016.010.8 26.023.124.0
2018-Apr-22 20:00N 24°24' W 074°12'19114.7 050 / 251017.010.8 27.024.126.0
2018-Apr-22 07:00N 25°42' W 077°24'11517.0 050 / 281018.010.8 25.023.525.0
2018-Apr-22 00:15N 26°05' W 079°29'519.4
2018-Apr-22 00:00N 26°02' W 079°34'817.2
2018-Apr-21 23:31N 25°57' W 079°41'714.1
2018-Apr-21 23:00N 25°54' W 079°48'713.9
2018-Apr-21 22:30N 25°50' W 079°55'713.7
2018-Apr-21 22:00N 25°48' W 080°02'611.5
2018-Apr-21 21:30N 25°46' W 080°07'3 7.0
2018-Apr-21 21:00N 25°47' W 080°11'1 1.5
2018-Apr-21 20:28N 25°47' W 080°10'0 0.0
2018-Apr-21 19:52N 25°47' W 080°10'0 0.0
2018-Apr-21 19:28N 25°47' W 080°10'0 0.0
2018-Apr-21 18:55N 25°47' W 080°10'0 0.0
2018-Apr-21 18:28N 25°47' W 080°10'0 0.0
2018-Apr-21 17:52N 25°47' W 080°10'0 0.0
2018-Apr-21 17:28N 25°47' W 080°10'0 0.0
2018-Apr-21 16:55N 25°47' W 080°10'0 0.0
2018-Apr-21 16:25N 25°47' W 080°10'0 0.0
2018-Apr-21 15:55N 25°47' W 080°10'0 0.0
2018-Apr-21 15:28N 25°47' W 080°10'0 0.0
2018-Apr-21 14:58N 25°47' W 080°10'0 0.0
2018-Apr-21 14:25N 25°47' W 080°10'0 0.0
2018-Apr-21 13:58N 25°47' W 080°10'0 0.0
2018-Apr-21 13:28N 25°47' W 080°10'0 0.0
2018-Apr-21 12:58N 25°47' W 080°10'0 0.0
2018-Apr-21 12:28N 25°47' W 080°10'0 0.0
2018-Apr-21 11:58N 25°47' W 080°10'0 0.0
2018-Apr-21 11:28N 25°47' W 080°10'0 0.0
2018-Apr-21 10:58N 25°47' W 080°10'0 0.0
2018-Apr-21 10:28N 25°47' W 080°10'0 0.0
2018-Apr-21 09:58N 25°47' W 080°10'0 0.0
2018-Apr-21 09:28N 25°47' W 080°10'0 0.0
2018-Apr-21 09:00N 25°47' W 080°10'1 1.0
2018-Apr-21 08:30N 25°46' W 080°10'4 9.0
2018-Apr-21 08:00N 25°46' W 080°05'4 8.8
2018-Apr-21 07:30N 25°45' W 080°00'816.0
2018-Apr-21 07:00N 25°38' W 079°55'10624.0
2018-Apr-21 07:00N 25°30' W 079°48'2 4.0 050 / 61018.010.8 27.022.625.0
2018-Apr-21 06:30N 25°31' W 079°49'816.4
2018-Apr-21 06:00N 25°25' W 079°44'815.9
2018-Apr-21 05:30N 25°18' W 079°39'3915.2
2018-Apr-21 02:55N 24°41' W 079°50'615.1
2018-Apr-21 02:30N 24°36' W 079°55'815.7
2018-Apr-21 01:58N 24°32' W 080°02'2017.9
2018-Apr-21 00:52N 24°21' W 080°21'2118.7
2018-Apr-20 23:45N 24°11' W 080°40'518.7
2018-Apr-20 23:30N 24°08' W 080°45'7616.8
2018-Apr-20 19:00N 23°36' W 082°00'19316.1 010 / 151018.010.8 24.019.426.0
2018-Apr-20 07:00N 22°18' W 085°12'14318.9 050 / 151017.010.8 27.021.026.0
2018-Apr-19 23:23N 20°34' W 086°59'513.9
2018-Apr-19 23:00N 20°29' W 086°60'1 1.9
2018-Apr-19 22:22N 20°29' W 086°59'0 0.0
2018-Apr-19 21:58N 20°29' W 086°59'0 0.0
2018-Apr-19 21:28N 20°29' W 086°59'0 0.0
2018-Apr-19 20:58N 20°29' W 086°59'0 0.0
2018-Apr-19 20:28N 20°29' W 086°59'0 0.0
2018-Apr-19 19:58N 20°29' W 086°59'0 0.0
2018-Apr-19 19:28N 20°29' W 086°59'0 0.0
2018-Apr-19 18:52N 20°29' W 086°59'0 0.0
2018-Apr-19 18:28N 20°29' W 086°59'0 0.0
2018-Apr-19 17:49N 20°29' W 086°59'0 0.0
2018-Apr-19 17:28N 20°29' W 086°59'0 0.0
2018-Apr-19 16:58N 20°29' W 086°59'0 0.0
2018-Apr-19 16:22N 20°29' W 086°59'0 0.0
2018-Apr-19 15:58N 20°29' W 086°59'0 0.0
2018-Apr-19 15:28N 20°29' W 086°59'0 0.0
2018-Apr-19 14:58N 20°29' W 086°59'0 0.0
2018-Apr-19 14:25N 20°29' W 086°59'0 0.1
2018-Apr-19 14:00N 20°29' W 086°59'2 4.8
2018-Apr-19 13:30N 20°31' W 086°59'510.3
2018-Apr-19 13:00N 20°35' W 086°56'713.2
2018-Apr-19 12:29N 20°40' W 086°51'2517.0
2018-Apr-19 11:00N 20°42' W 086°24'7719.2 100 / 171016.010.8 26.023.125.0
2018-Apr-19 07:00N 20°18' W 085°06'28211.8 070 / 121016.010.8 28.023.726.0
2018-Apr-18 07:00N 19°00' W 080°18'   050 / 231014.010.8 27.022.626.0

Dump ship's entire track history